createdAt,value
2022-11-03T00:01:11.364Z,10.82
2022-11-03T00:03:38.137Z,10.05
2022-11-03T00:06:06.556Z,7.85
2022-11-03T00:08:35.607Z,11.82
2022-11-03T00:11:07.152Z,11.02
2022-11-03T00:13:35.064Z,15.20
2022-11-03T00:16:01.880Z,14.35
2022-11-03T00:18:28.537Z,14.15
2022-11-03T00:20:59.392Z,11.75
2022-11-03T00:23:29.982Z,13.60
2022-11-03T00:26:04.682Z,13.55
2022-11-03T00:28:32.878Z,12.15
2022-11-03T00:31:00.243Z,18.95
2022-11-03T00:33:30.548Z,14.68
2022-11-03T00:35:58.426Z,13.13
2022-11-03T00:38:25.715Z,13.05
2022-11-03T00:40:57.887Z,12.60
2022-11-03T00:43:26.337Z,13.45
2022-11-03T00:45:53.487Z,13.50
2022-11-03T00:48:29.581Z,15.10
2022-11-03T00:51:00.705Z,15.65
2022-11-03T00:53:27.479Z,13.77
2022-11-03T00:55:54.304Z,13.70
2022-11-03T00:58:22.335Z,9.85
2022-11-03T01:00:49.011Z,12.90
2022-11-03T01:03:15.792Z,11.00
2022-11-03T01:06:02.445Z,12.32
2022-11-03T01:08:32.692Z,11.93
2022-11-03T01:11:24.589Z,14.57
2022-11-03T01:13:52.698Z,12.38
2022-11-03T01:16:19.412Z,15.68
2022-11-03T01:18:46.236Z,12.02
2022-11-03T01:21:12.903Z,16.95
2022-11-03T01:23:39.616Z,12.05
2022-11-03T01:26:06.637Z,11.75
2022-11-03T01:28:34.282Z,13.90
2022-11-03T01:31:05.752Z,11.52
2022-11-03T01:33:32.754Z,12.13
2022-11-03T01:35:59.689Z,14.27
2022-11-03T01:38:26.562Z,13.80
2022-11-03T01:40:53.350Z,12.40
2022-11-03T01:43:22.136Z,10.50
2022-11-03T01:45:53.283Z,11.02
2022-11-03T01:48:23.072Z,11.73
2022-11-03T01:50:51.306Z,14.20
2022-11-03T01:53:19.404Z,14.98
2022-11-03T01:55:48.583Z,13.35
2022-11-03T01:58:19.826Z,13.32
2022-11-03T02:00:50.816Z,15.13
2022-11-03T02:03:18.877Z,15.90
2022-11-03T02:05:48.584Z,15.27
2022-11-03T02:08:19.605Z,12.07
2022-11-03T02:10:47.910Z,10.00
2022-11-03T02:13:19.128Z,12.65
2022-11-03T02:15:47.410Z,13.43
2022-11-03T02:18:16.303Z,10.90
2022-11-03T02:20:44.829Z,11.25
2022-11-03T02:23:26.362Z,9.57
2022-11-03T02:25:57.229Z,10.85
2022-11-03T02:28:26.848Z,8.48
2022-11-03T02:33:37.776Z,10.25
2022-11-03T02:36:11.692Z,11.50
2022-11-03T02:38:46.009Z,9.57
2022-11-03T02:41:16.540Z,12.73
2022-11-03T02:43:44.825Z,13.70
2022-11-03T02:46:13.562Z,23.35
2022-11-03T02:48:40.213Z,19.55
2022-11-03T02:51:06.962Z,24.13
2022-11-03T02:53:39.442Z,26.40
2022-11-03T02:56:09.781Z,17.17
2022-11-03T02:58:45.615Z,19.02
2022-11-03T03:01:17.479Z,13.63
2022-11-03T03:03:48.319Z,15.32
2022-11-03T03:06:19.876Z,15.85
2022-11-03T03:08:50.688Z,15.40
2022-11-03T03:11:36.961Z,15.20
2022-11-03T03:14:12.191Z,13.05
2022-11-03T03:16:50.368Z,12.27
2022-11-03T03:19:28.656Z,11.32
2022-11-03T03:21:58.000Z,12.43
2022-11-03T03:24:33.894Z,15.82
2022-11-03T03:27:04.060Z,9.07
2022-11-03T03:29:37.532Z,8.60
2022-11-03T03:32:08.947Z,12.60
2022-11-03T03:34:39.176Z,9.35
2022-11-03T03:37:08.773Z,9.90
2022-11-03T03:42:06.696Z,7.72
2022-11-03T03:44:37.492Z,8.93
2022-11-03T03:47:09.988Z,7.93
2022-11-03T03:49:36.604Z,8.30
2022-11-03T03:52:03.924Z,7.75
2022-11-03T03:54:30.552Z,7.85
2022-11-03T03:57:02.421Z,7.50
2022-11-03T03:59:29.098Z,9.00
2022-11-03T04:01:57.293Z,9.35
2022-11-03T04:04:24.025Z,8.82
2022-11-03T04:07:10.940Z,10.25
2022-11-03T04:09:37.594Z,8.20
2022-11-03T04:12:23.220Z,8.05
2022-11-03T04:15:08.368Z,11.68
2022-11-03T04:18:02.847Z,7.72
2022-11-03T04:20:48.392Z,9.63
2022-11-03T04:23:15.686Z,7.75
2022-11-03T04:25:50.729Z,7.07
2022-11-03T04:28:17.382Z,7.28
2022-11-03T04:30:44.262Z,7.18
2022-11-03T04:33:16.037Z,7.28
2022-11-03T04:35:44.428Z,9.25
2022-11-03T04:38:22.114Z,8.60
2022-11-03T04:40:55.157Z,9.75
2022-11-03T04:43:24.163Z,9.00
2022-11-03T04:45:50.935Z,10.02
2022-11-03T04:48:22.395Z,9.15
2022-11-03T04:50:53.360Z,8.63
2022-11-03T04:53:21.740Z,10.05
2022-11-03T04:55:51.311Z,9.70
2022-11-03T04:58:21.311Z,14.10
2022-11-03T05:00:49.788Z,8.82
2022-11-03T05:03:22.215Z,8.77
2022-11-03T05:05:49.317Z,11.13
2022-11-03T05:08:18.182Z,7.47
2022-11-03T05:10:46.265Z,5.10
2022-11-03T05:13:18.826Z,6.78
2022-11-03T05:15:45.847Z,6.50
2022-11-03T05:18:17.136Z,8.65
2022-11-03T05:20:50.237Z,11.40
2022-11-03T05:23:18.367Z,7.00
2022-11-03T05:25:47.096Z,9.23
2022-11-03T05:28:20.997Z,5.82
2022-11-03T05:30:48.792Z,8.02
2022-11-03T05:33:20.789Z,7.03
2022-11-03T05:35:49.018Z,7.50
2022-11-03T05:38:19.218Z,7.82
2022-11-03T05:40:46.249Z,9.32
2022-11-03T05:43:14.823Z,5.40
2022-11-03T05:45:42.010Z,9.05
2022-11-03T05:48:16.455Z,10.93
2022-11-03T05:50:43.149Z,9.02
2022-11-03T05:53:25.168Z,9.85
2022-11-03T05:55:52.552Z,13.05
2022-11-03T05:58:24.230Z,6.90
2022-11-03T06:00:51.653Z,13.18
2022-11-03T06:03:23.670Z,9.18
2022-11-03T06:05:50.662Z,9.45
2022-11-03T06:08:21.751Z,10.57
2022-11-03T06:10:50.789Z,10.85
2022-11-03T06:13:20.460Z,10.52
2022-11-03T06:15:49.150Z,10.93
2022-11-03T06:18:19.792Z,11.68
2022-11-03T06:20:54.683Z,9.20
2022-11-03T06:23:23.302Z,12.07
2022-11-03T06:25:52.571Z,10.88
2022-11-03T06:28:25.193Z,11.70
2022-11-03T06:30:52.301Z,11.75
2022-11-03T06:33:22.744Z,13.80
2022-11-03T06:35:51.868Z,11.48
2022-11-03T06:38:22.832Z,17.00
2022-11-03T06:40:52.619Z,12.05
2022-11-03T06:43:28.767Z,14.00
2022-11-03T06:45:58.296Z,10.38
2022-11-03T06:48:28.472Z,13.23
2022-11-03T06:50:56.591Z,14.05
2022-11-03T06:53:27.610Z,10.75
2022-11-03T06:55:55.954Z,11.32
2022-11-03T06:58:32.472Z,12.45
2022-11-03T07:01:03.524Z,15.23
2022-11-03T07:03:33.396Z,15.82
2022-11-03T07:06:03.186Z,12.73
2022-11-03T07:08:31.976Z,11.50
2022-11-03T07:11:11.005Z,10.98
2022-11-03T07:13:37.657Z,16.45
2022-11-03T07:16:04.631Z,14.48
2022-11-03T07:18:35.704Z,14.30
2022-11-03T07:21:13.293Z,13.48
2022-11-03T07:23:43.362Z,11.50
2022-11-03T07:26:14.345Z,9.82
2022-11-03T07:28:41.162Z,9.98
2022-11-03T07:31:16.414Z,10.63
2022-11-03T07:33:43.963Z,10.68
2022-11-03T07:36:16.249Z,11.77
2022-11-03T07:38:44.162Z,8.23
2022-11-03T07:41:19.468Z,10.48
2022-11-03T07:43:53.198Z,8.15
2022-11-03T07:46:21.751Z,12.18
2022-11-03T07:48:50.129Z,10.57
2022-11-03T07:51:20.747Z,12.38
2022-11-03T07:53:50.147Z,13.25
2022-11-03T07:56:21.679Z,12.45
2022-11-03T07:58:50.723Z,12.57
2022-11-03T08:01:28.499Z,10.93
2022-11-03T08:03:59.484Z,14.15
2022-11-03T08:06:26.592Z,13.90
2022-11-03T08:08:53.248Z,19.05
2022-11-03T08:11:26.046Z,15.07
2022-11-03T08:13:55.812Z,10.88
2022-11-03T08:16:22.430Z,11.05
2022-11-03T08:18:49.063Z,10.60
2022-11-03T08:21:17.278Z,10.50
2022-11-03T08:23:47.423Z,13.55
2022-11-03T08:26:14.646Z,8.55
2022-11-03T08:28:42.912Z,10.32
2022-11-03T08:31:12.934Z,8.95
2022-11-03T08:33:40.760Z,12.10
2022-11-03T08:36:09.476Z,11.10
2022-11-03T08:38:36.660Z,12.27
2022-11-03T08:41:04.022Z,8.63
2022-11-03T08:43:30.742Z,9.55
2022-11-03T08:46:05.597Z,12.18
2022-11-03T08:48:40.142Z,10.00
2022-11-03T08:51:08.374Z,7.95
2022-11-03T08:53:35.369Z,7.78
2022-11-03T08:56:02.173Z,11.68
2022-11-03T08:58:28.892Z,11.18
2022-11-03T09:00:55.558Z,9.10
2022-11-03T09:03:24.055Z,8.43
2022-11-03T09:05:51.198Z,8.02
2022-11-03T09:11:04.710Z,10.63
2022-11-03T09:13:31.324Z,9.57
2022-11-03T09:15:57.989Z,12.77
2022-11-03T09:18:25.993Z,8.73
2022-11-03T09:20:52.639Z,6.95
2022-11-03T09:23:19.326Z,8.15
2022-11-03T09:25:45.922Z,9.38
2022-11-03T09:28:12.555Z,9.80
2022-11-03T09:30:39.216Z,7.00
2022-11-03T09:33:05.954Z,10.75
2022-11-03T09:35:33.980Z,7.72
2022-11-03T09:38:00.655Z,4.85
2022-11-03T09:40:27.451Z,11.23
2022-11-03T09:42:54.519Z,6.57
2022-11-03T09:45:21.271Z,7.90
2022-11-03T09:47:47.912Z,8.20
2022-11-03T09:50:17.630Z,6.93
2022-11-03T09:52:50.323Z,8.63
2022-11-03T09:55:23.408Z,8.32
2022-11-03T09:57:52.472Z,10.32
2022-11-03T10:00:21.107Z,7.78
2022-11-03T10:02:47.921Z,8.00
2022-11-03T10:05:19.032Z,6.70
2022-11-03T10:07:47.173Z,7.63
2022-11-03T10:10:18.332Z,10.98
2022-11-03T10:12:46.607Z,7.90
2022-11-03T10:15:17.636Z,8.27
2022-11-03T10:17:45.112Z,10.88
2022-11-03T10:20:13.759Z,11.70
2022-11-03T10:22:41.276Z,8.07
2022-11-03T10:25:30.506Z,8.70
2022-11-03T10:28:16.030Z,7.18
2022-11-03T10:31:11.263Z,7.18
2022-11-03T10:33:40.512Z,7.78
2022-11-03T10:36:23.292Z,11.30
2022-11-03T10:38:50.017Z,12.02
2022-11-03T10:41:19.491Z,6.78
2022-11-03T10:44:01.040Z,6.50
2022-11-03T10:49:17.457Z,7.75
2022-11-03T10:51:47.803Z,7.88
2022-11-03T10:54:16.566Z,7.85
2022-11-03T10:56:46.122Z,8.63
2022-11-03T10:59:17.598Z,11.80
2022-11-03T11:01:44.523Z,6.75
2022-11-03T11:04:14.968Z,7.72
2022-11-03T11:06:41.884Z,9.65
2022-11-03T11:09:11.444Z,14.18
2022-11-03T11:11:38.056Z,9.52
2022-11-03T11:14:36.958Z,7.72
2022-11-03T11:17:04.911Z,7.72
2022-11-03T11:20:10.150Z,7.93
2022-11-03T11:22:36.812Z,9.32
2022-11-03T11:25:04.022Z,7.32
2022-11-03T11:27:58.361Z,6.30
2022-11-03T11:31:01.803Z,8.85
2022-11-03T11:33:33.194Z,9.52
2022-11-03T11:36:19.057Z,7.13
2022-11-03T11:38:57.417Z,7.05
2022-11-03T11:42:16.763Z,7.03
2022-11-03T11:44:57.919Z,7.57
2022-11-03T11:47:30.454Z,6.15
2022-11-03T11:50:31.565Z,6.57
2022-11-03T11:57:58.130Z,9.63
2022-11-03T12:00:26.952Z,6.35
2022-11-03T12:02:54.093Z,10.00
2022-11-03T12:05:23.300Z,8.77
2022-11-03T12:07:51.510Z,8.52
2022-11-03T12:10:19.892Z,9.68
2022-11-03T12:12:46.636Z,9.82
2022-11-03T12:16:05.199Z,8.30
2022-11-03T12:18:39.157Z,7.68
2022-11-03T12:21:09.725Z,10.05
2022-11-03T12:23:41.323Z,8.52
2022-11-03T12:26:16.202Z,8.60
2022-11-03T12:28:43.577Z,8.15
2022-11-03T12:31:10.352Z,8.60
2022-11-03T12:33:37.050Z,8.05
2022-11-03T12:36:03.972Z,11.52
2022-11-03T12:38:30.638Z,7.55
2022-11-03T12:41:20.926Z,7.53
2022-11-03T12:43:48.477Z,7.50
2022-11-03T12:46:15.707Z,9.25
2022-11-03T12:48:44.018Z,9.57
2022-11-03T12:51:15.371Z,10.82
2022-11-03T12:53:42.502Z,6.70
2022-11-03T12:56:12.054Z,7.10
2022-11-03T12:58:39.020Z,9.15
2022-11-03T13:01:06.914Z,7.25
2022-11-03T13:03:35.008Z,11.75
2022-11-03T13:06:04.454Z,10.80
2022-11-03T13:08:31.370Z,7.22
2022-11-03T13:10:58.091Z,12.90
2022-11-03T13:13:26.979Z,9.35
2022-11-03T13:18:20.389Z,8.20
2022-11-03T13:20:47.090Z,8.85
2022-11-03T13:23:15.275Z,11.13
2022-11-03T13:25:46.507Z,8.75
2022-11-03T13:28:13.201Z,6.30
2022-11-03T13:30:41.437Z,6.80
2022-11-03T13:33:08.534Z,7.88
2022-11-03T13:35:35.667Z,9.98
2022-11-03T13:38:02.357Z,10.95
2022-11-03T13:40:54.990Z,8.40
2022-11-03T13:43:15.650Z,11.52
2022-11-03T13:45:43.677Z,8.65
2022-11-03T13:48:52.775Z,9.50
2022-11-03T13:50:57.258Z,11.30
2022-11-03T13:56:20.746Z,7.50
2022-11-03T14:01:37.554Z,9.43
2022-11-03T14:06:50.957Z,10.63
2022-11-03T14:09:17.623Z,10.35
2022-11-03T14:12:03.182Z,7.07
2022-11-03T14:14:30.361Z,9.70
2022-11-03T14:16:58.706Z,10.55
2022-11-03T14:19:31.759Z,8.07
2022-11-03T14:22:00.687Z,7.28
2022-11-03T14:24:27.371Z,8.43
2022-11-03T14:26:54.193Z,7.68
2022-11-03T14:29:20.884Z,9.55
2022-11-03T14:31:47.499Z,8.27
2022-11-03T14:34:15.553Z,7.75
2022-11-03T14:36:42.419Z,8.00
2022-11-03T14:39:09.242Z,11.38
2022-11-03T14:41:54.476Z,12.10
2022-11-03T14:44:21.142Z,6.97
2022-11-03T14:46:47.957Z,7.50
2022-11-03T14:49:16.107Z,7.70
2022-11-03T14:51:43.037Z,7.45
2022-11-03T14:54:09.728Z,10.13
2022-11-03T14:56:36.377Z,7.43
2022-11-03T14:59:02.994Z,9.15
2022-11-03T15:01:29.882Z,12.23
2022-11-03T15:03:56.654Z,8.20
2022-11-03T15:06:25.142Z,10.95
2022-11-03T15:08:56.095Z,7.05
2022-11-03T15:11:23.187Z,7.70
2022-11-03T15:13:52.552Z,10.02
2022-11-03T15:16:19.485Z,8.63
2022-11-03T15:18:46.113Z,8.77
2022-11-03T15:21:16.384Z,7.85
2022-11-03T15:26:31.062Z,14.15
2022-11-03T15:28:57.704Z,9.57
2022-11-03T15:31:24.314Z,11.45
2022-11-03T15:33:50.947Z,11.35
2022-11-03T15:36:17.717Z,8.73
2022-11-03T15:38:46.073Z,11.82
2022-11-03T15:41:15.521Z,12.95
2022-11-03T15:43:42.632Z,16.42
2022-11-03T15:46:10.334Z,14.07
2022-11-03T15:48:37.117Z,9.02
2022-11-03T15:51:04.455Z,17.35
2022-11-03T15:53:31.097Z,12.65
2022-11-03T15:55:59.136Z,8.25
2022-11-03T15:58:25.817Z,12.68
2022-11-03T16:00:52.573Z,7.05
2022-11-03T16:03:19.372Z,9.68
2022-11-03T16:05:46.740Z,11.93
2022-11-03T16:08:15.653Z,9.85
2022-11-03T16:10:48.073Z,10.93
2022-11-03T16:13:18.764Z,10.15
2022-11-03T16:15:45.454Z,13.43
2022-11-03T16:18:12.116Z,9.70
2022-11-03T16:20:38.807Z,9.90
2022-11-03T16:23:05.538Z,9.02
2022-11-03T16:25:32.236Z,12.63
2022-11-03T16:27:58.902Z,13.27
2022-11-03T16:30:26.926Z,13.90
2022-11-03T16:32:53.885Z,12.85
2022-11-03T16:35:20.867Z,8.25
2022-11-03T16:37:47.668Z,9.20
2022-11-03T16:40:19.013Z,9.95
2022-11-03T16:42:46.361Z,6.30
2022-11-03T16:45:17.359Z,9.30
2022-11-03T16:47:46.221Z,8.00
2022-11-03T16:50:13.315Z,11.70
2022-11-03T16:52:40.087Z,10.57
2022-11-03T16:55:07.965Z,9.93
2022-11-03T16:57:34.694Z,9.15
2022-11-03T17:00:02.117Z,7.00
2022-11-03T17:02:29.019Z,9.45
2022-11-03T17:04:57.153Z,8.55
2022-11-03T17:07:23.841Z,8.88
2022-11-03T17:09:50.464Z,15.63
2022-11-03T17:12:17.141Z,15.95
2022-11-03T17:14:43.851Z,13.65
2022-11-03T17:17:10.486Z,18.08
2022-11-03T17:19:37.155Z,11.85
2022-11-03T17:22:05.762Z,14.68
2022-11-03T17:24:32.413Z,19.27
2022-11-03T17:27:01.933Z,12.25
2022-11-03T17:29:34.678Z,17.17
2022-11-03T17:32:02.574Z,17.67
2022-11-03T17:34:29.357Z,18.23
2022-11-03T17:36:56.631Z,13.38
2022-11-03T17:39:30.249Z,14.05
2022-11-03T17:42:14.779Z,13.98
2022-11-03T17:44:41.674Z,12.55
2022-11-03T17:47:08.278Z,12.80
2022-11-03T17:49:35.217Z,10.80
2022-11-03T17:52:02.164Z,11.32
2022-11-03T17:54:31.721Z,12.65
2022-11-03T17:57:01.236Z,18.13
2022-11-03T17:59:28.545Z,12.93
2022-11-03T18:01:55.852Z,13.38
2022-11-03T18:04:23.104Z,10.25
2022-11-03T18:06:49.756Z,12.68
2022-11-03T18:09:16.377Z,12.73
2022-11-03T18:12:03.349Z,12.45
2022-11-03T18:14:30.433Z,13.10
2022-11-03T18:16:57.935Z,12.90
2022-11-03T18:19:24.796Z,16.60
2022-11-03T18:21:51.512Z,15.00
2022-11-03T18:24:19.907Z,12.13
2022-11-03T18:26:48.572Z,13.75
2022-11-03T18:29:15.243Z,13.95
2022-11-03T18:31:43.959Z,13.93
2022-11-03T18:34:14.696Z,14.88
2022-11-03T18:36:41.652Z,16.13
2022-11-03T18:39:13.933Z,17.92
2022-11-03T18:41:40.621Z,20.38
2022-11-03T18:44:15.760Z,14.88
2022-11-03T18:46:42.700Z,16.23
2022-11-03T18:49:09.557Z,23.55
2022-11-03T18:51:36.216Z,20.30
2022-11-03T18:54:03.487Z,15.93
2022-11-03T18:56:34.106Z,16.23
2022-11-03T18:59:04.012Z,22.48
2022-11-03T19:01:32.307Z,19.05
2022-11-03T19:03:59.061Z,16.38
2022-11-03T19:06:25.774Z,21.08
2022-11-03T19:08:58.685Z,15.07
2022-11-03T19:11:26.315Z,23.52
2022-11-03T19:13:53.166Z,23.15
2022-11-03T19:16:22.343Z,22.90
2022-11-03T19:21:20.657Z,17.42
2022-11-03T19:23:48.578Z,20.30
2022-11-03T19:26:20.912Z,23.80
2022-11-03T19:28:51.391Z,18.08
2022-11-03T19:31:22.992Z,18.17
2022-11-03T19:33:54.407Z,18.20
2022-11-03T19:36:21.100Z,18.42
2022-11-03T19:38:48.126Z,14.07
2022-11-03T19:41:35.424Z,15.52
2022-11-03T19:44:02.591Z,16.20
2022-11-03T19:46:29.358Z,19.75
2022-11-03T19:48:58.449Z,19.20
2022-11-03T19:51:25.183Z,21.65
2022-11-03T19:53:52.496Z,29.80
2022-11-03T19:56:20.191Z,34.92
2022-11-03T19:58:47.118Z,27.67
2022-11-03T20:01:13.959Z,24.33
2022-11-03T20:03:40.878Z,19.52
2022-11-03T20:06:09.256Z,15.88
2022-11-03T20:08:37.169Z,14.38
2022-11-03T20:11:05.153Z,12.18
2022-11-03T20:13:37.745Z,22.00
2022-11-03T20:16:10.062Z,14.25
2022-11-03T20:18:36.777Z,15.80
2022-11-03T20:21:04.320Z,14.90
2022-11-03T20:23:34.730Z,13.77
2022-11-03T20:26:02.353Z,15.52
2022-11-03T20:28:32.245Z,20.80
2022-11-03T20:31:01.115Z,17.92
2022-11-03T20:33:28.101Z,25.90
2022-11-03T20:35:55.154Z,20.20
2022-11-03T20:38:24.866Z,18.60
2022-11-03T20:40:58.429Z,20.25
2022-11-03T20:43:27.921Z,17.92
2022-11-03T20:45:55.391Z,21.48
2022-11-03T20:48:22.662Z,16.63
2022-11-03T20:50:49.573Z,20.23
2022-11-03T20:53:18.670Z,19.70
2022-11-03T20:55:45.713Z,22.10
2022-11-03T20:58:16.016Z,18.27
2022-11-03T21:00:44.567Z,15.10
2022-11-03T21:03:31.264Z,20.67
2022-11-03T21:06:04.547Z,20.10
2022-11-03T21:08:32.098Z,19.60
2022-11-03T21:11:18.710Z,17.33
2022-11-03T21:13:46.991Z,23.02
2022-11-03T21:16:32.278Z,22.45
2022-11-03T21:19:17.704Z,22.50
2022-11-03T21:21:44.435Z,17.63
2022-11-03T21:24:11.792Z,20.30
2022-11-03T21:26:40.134Z,16.55
2022-11-03T21:29:08.395Z,18.70
2022-11-03T21:31:35.074Z,19.20
2022-11-03T21:34:01.750Z,19.52
2022-11-03T21:36:28.468Z,19.65
2022-11-03T21:38:55.208Z,16.20
2022-11-03T21:41:40.343Z,28.88
2022-11-03T21:44:17.943Z,18.20
2022-11-03T21:46:46.592Z,17.38
2022-11-03T21:49:33.459Z,21.15
2022-11-03T21:52:00.126Z,24.80
2022-11-03T21:54:26.960Z,20.73
2022-11-03T21:56:53.855Z,15.98
2022-11-03T21:59:21.938Z,21.40
2022-11-03T22:01:53.166Z,21.52
2022-11-03T22:04:20.433Z,17.92
2022-11-03T22:06:47.103Z,16.05
2022-11-03T22:09:13.872Z,22.25
2022-11-03T22:11:40.797Z,17.08
2022-11-03T22:14:07.539Z,20.45
2022-11-03T22:16:38.290Z,17.02
2022-11-03T22:19:24.511Z,15.93
2022-11-03T22:22:10.190Z,19.17
2022-11-03T22:24:57.626Z,16.40
2022-11-03T22:27:25.796Z,19.17
2022-11-03T22:30:12.171Z,17.20
2022-11-03T22:32:40.594Z,19.73
2022-11-03T22:35:28.294Z,18.73
2022-11-03T22:38:03.449Z,16.42
2022-11-03T22:40:48.661Z,17.73
2022-11-03T22:43:41.086Z,13.98
2022-11-03T22:46:08.851Z,13.25
2022-11-03T22:48:37.601Z,12.23
2022-11-03T22:51:06.556Z,11.60
2022-11-03T22:53:53.836Z,11.68
2022-11-03T22:56:21.617Z,10.25
2022-11-03T22:58:48.711Z,7.45
2022-11-03T23:01:17.819Z,9.98
2022-11-03T23:06:14.937Z,11.55
2022-11-03T23:08:42.753Z,9.95
2022-11-03T23:11:15.963Z,10.95
2022-11-03T23:13:43.413Z,10.30
2022-11-03T23:16:12.713Z,13.30
2022-11-03T23:18:58.513Z,10.85
2022-11-03T23:21:28.892Z,11.15
2022-11-03T23:24:15.432Z,11.15
2022-11-03T23:26:43.016Z,10.63
2022-11-03T23:29:09.951Z,12.27
2022-11-03T23:31:37.360Z,10.40
2022-11-03T23:34:05.336Z,10.68
2022-11-03T23:36:33.747Z,10.38
2022-11-03T23:39:01.348Z,12.25
2022-11-03T23:41:28.969Z,11.48
2022-11-03T23:43:56.444Z,12.18
2022-11-03T23:46:43.417Z,10.27
2022-11-03T23:49:10.416Z,8.57
2022-11-03T23:51:39.226Z,8.45
2022-11-03T23:54:08.043Z,7.72
2022-11-03T23:56:55.449Z,6.95
